»·PEaware :: N172SJ KAVX-KSAN

N172SJ :: KAVX-KSAN

FLIGHT INFORMATION

Flight Status: Arrived
Operator: Privately registered:
United States
More flights under this callsign
Pilot: Simon J. (17284)
Aircraft: CESSNA 172 SKYHAWK
(C172)
More flights by this aircraft type
Origin: KAVX Catalina
United States
Destination: KSAN San Diego Intl-Lindbergh
United States
More flights between these airports :: More routes between these airports
Route: SXC V208 OCN V23 MZB
File this flight plan on PilotEdge
Remarks: I-8 RATING
Altitude:
(Current/Filed)
5,000ft
Speed:
(Current/Filed)
115kts
Departed: 22-Nov-17 05:59 PM
Arrived: 22-Nov-17 07:02 PM
Distance/Time
Traveled:
74nm/1:03
Distance/Time
To Go:
Arrived

Flight Plot

Page will automatically refresh every two minutes.


Map Options




Map Legend


Flown Route
Filed Route
Departure Airport
Arrival Airport
Navaid (VOR, NDB)
Fix

Horizontal Profiles

Position Reports

Time Latitude Longitude Heading Altitude Ground
Speed
22-Nov-17 17:45 33.403287 -118.415949 44 1551ft 0kts
22-Nov-17 17:46 33.403287 -118.415949 44 1551ft 0kts
22-Nov-17 17:47 33.403287 -118.415949 44 1551ft 0kts
22-Nov-17 17:48 33.403287 -118.415949 44 1551ft 0kts
22-Nov-17 17:49 33.403287 -118.415949 44 1551ft 0kts
22-Nov-17 17:50 33.403287 -118.415949 44 1551ft 0kts
22-Nov-17 17:51 33.403287 -118.415949 44 1551ft 0kts
22-Nov-17 17:52 33.403287 -118.415949 44 1551ft 0kts
22-Nov-17 17:53 33.403287 -118.415949 44 1551ft 0kts
22-Nov-17 17:54 33.403287 -118.415949 44 1551ft 0kts
22-Nov-17 17:55 33.403287 -118.415949 44 1551ft 0kts
22-Nov-17 17:56 33.403287 -118.415949 44 1551ft 0kts
22-Nov-17 17:57 33.403287 -118.415949 44 1551ft 0kts
22-Nov-17 17:58 33.403287 -118.415949 44 1551ft 0kts
22-Nov-17 17:59 33.403506 -118.416371 293 1554ft 11kts
22-Nov-17 18:00 33.402293 -118.419587 247 1554ft 0kts
22-Nov-17 18:01 33.402268 -118.419635 239 1554ft 0kts
22-Nov-17 18:02 33.402268 -118.419635 239 1554ft 0kts
22-Nov-17 18:03 33.402268 -118.419635 239 1554ft 0kts
22-Nov-17 18:04 33.405147 -118.415490 54 1565ft 79kts
22-Nov-17 18:05 33.420423 -118.394314 51 2409ft 86kts
22-Nov-17 18:06 33.407185 -118.391930 218 3236ft 84kts
22-Nov-17 18:07 33.387989 -118.408961 217 3870ft 102kts
22-Nov-17 18:08 33.367628 -118.395251 92 3846ft 126kts
22-Nov-17 18:09 33.365670 -118.357533 96 4427ft 98kts
22-Nov-17 18:10 33.362065 -118.323546 98 4923ft 105kts
22-Nov-17 18:11 33.357787 -118.288754 98 5423ft 105kts
22-Nov-17 18:12 33.353341 -118.254183 98 5919ft 104kts
22-Nov-17 18:13 33.349612 -118.225619 98 6331ft 103kts
22-Nov-17 18:14 33.345179 -118.191772 98 6824ft 102kts
22-Nov-17 18:15 33.338718 -118.142961 99 6332ft 138kts
22-Nov-17 18:16 33.333647 -118.104663 99 5919ft 140kts
22-Nov-17 18:17 33.327543 -118.058707 99 5422ft 140kts
22-Nov-17 18:18 33.321426 -118.012770 99 5005ft 137kts
22-Nov-17 18:19 33.315623 -117.969348 99 4947ft 128kts
22-Nov-17 18:20 33.310010 -117.927475 99 4949ft 127kts
22-Nov-17 18:21 33.304401 -117.885693 99 4949ft 127kts
22-Nov-17 18:22 33.298782 -117.843942 99 4949ft 127kts
22-Nov-17 18:23 33.293164 -117.802280 99 4949ft 127kts
22-Nov-17 18:24 33.287522 -117.760569 99 4949ft 127kts
22-Nov-17 18:25 33.281850 -117.718825 99 4949ft 127kts
22-Nov-17 18:26 33.276179 -117.677179 99 4949ft 127kts
22-Nov-17 18:27 33.270487 -117.635492 99 4949ft 127kts
22-Nov-17 18:28 33.264777 -117.593719 99 4949ft 127kts
22-Nov-17 18:29 33.259066 -117.552078 99 4949ft 127kts
22-Nov-17 18:30 33.253315 -117.510259 99 4949ft 127kts
22-Nov-17 18:31 33.247575 -117.468548 99 4949ft 127kts
22-Nov-17 18:32 33.241786 -117.426895 102 4948ft 127kts
22-Nov-17 18:33 33.212461 -117.406839 159 4949ft 126kts
22-Nov-17 18:34 33.179493 -117.392305 159 4949ft 126kts
22-Nov-17 18:35 33.146363 -117.378150 160 4949ft 126kts
22-Nov-17 18:36 33.113214 -117.364185 160 4949ft 126kts
22-Nov-17 18:37 33.080152 -117.350287 160 4949ft 126kts
22-Nov-17 18:38 33.047313 -117.336497 161 4949ft 126kts
22-Nov-17 18:39 33.014162 -117.322591 161 4949ft 126kts
22-Nov-17 18:40 32.981071 -117.308709 161 4949ft 126kts
22-Nov-17 18:41 32.947927 -117.294820 161 4949ft 126kts
22-Nov-17 18:42 32.914805 -117.280952 161 4949ft 126kts
22-Nov-17 18:43 32.881800 -117.267141 161 4949ft 126kts
22-Nov-17 18:44 32.848843 -117.253366 161 4949ft 126kts
22-Nov-17 18:45 32.828983 -117.222476 112 4949ft 127kts
22-Nov-17 18:46 32.815211 -117.183840 113 4949ft 127kts
22-Nov-17 18:47 32.801429 -117.145092 113 4949ft 127kts
22-Nov-17 18:48 32.787781 -117.106675 113 4949ft 127kts
22-Nov-17 18:49 32.774188 -117.068411 113 4949ft 127kts
22-Nov-17 18:50 32.760471 -117.029776 113 4949ft 127kts
22-Nov-17 18:51 32.746715 -116.991023 112 4949ft 127kts
22-Nov-17 18:52 32.733036 -116.952500 112 4949ft 127kts
22-Nov-17 18:53 32.719334 -116.913919 112 4949ft 127kts
22-Nov-17 18:54 32.705602 -116.875214 112 4949ft 127kts
22-Nov-17 18:55 32.691904 -116.836586 112 4949ft 127kts
22-Nov-17 18:56 32.669388 -116.814203 213 4943ft 125kts
22-Nov-17 18:57 32.660208 -116.852813 260 4949ft 125kts
22-Nov-17 18:58 32.655784 -116.894140 271 4824ft 133kts
22-Nov-17 18:59 32.670971 -116.934922 294 4329ft 139kts
22-Nov-17 19:00 32.682374 -116.978975 287 3745ft 143kts
22-Nov-17 19:01 32.693813 -117.025673 284 2752ft 148kts
22-Nov-17 19:02 32.704608 -117.067787 286 2338ft 109kts
22-Nov-17 19:03 32.710792 -117.096952 285 1792ft 99kts
22-Nov-17 19:04 32.720159 -117.135131 285 1469ft 125kts
22-Nov-17 19:05 32.727105 -117.163734 285 754ft 62kts
22-Nov-17 19:06 32.731642 -117.181703 286 14ft 44kts
22-Nov-17 19:07 32.733134 -117.184276 355 17ft 0kts
22-Nov-17 19:08 32.734301 -117.185432 303 17ft 0kts

Navigation Log

Ident Type
1. KAVX Airport
2. SXC Navaid
3. AVOLS Fix
4. PACIF Fix
5. HUBRD Fix
6. OCN Navaid
7. HURSI Fix
8. CARIF Fix
9. MZB Navaid
10. KSAN Airport